createdAt,value
2022-09-26T00:00:23.185Z,8.15
2022-09-26T00:02:52.956Z,8.95
2022-09-26T00:05:22.799Z,8.25
2022-09-26T00:07:52.563Z,8.52
2022-09-26T00:10:22.689Z,8.40
2022-09-26T00:12:53.331Z,8.57
2022-09-26T00:15:25.009Z,8.32
2022-09-26T00:17:54.833Z,8.52
2022-09-26T00:20:24.625Z,8.13
2022-09-26T00:22:54.408Z,8.57
2022-09-26T00:25:24.203Z,9.02
2022-09-26T00:27:53.964Z,8.68
2022-09-26T00:30:25.230Z,8.93
2022-09-26T00:32:55.013Z,9.00
2022-09-26T00:35:24.860Z,7.80
2022-09-26T00:37:54.728Z,8.77
2022-09-26T00:40:28.120Z,8.20
2022-09-26T00:42:58.412Z,7.93
2022-09-26T00:45:31.567Z,7.63
2022-09-26T00:48:05.189Z,7.83
2022-09-26T00:50:37.433Z,8.80
2022-09-26T00:53:11.042Z,7.82
2022-09-26T00:55:54.741Z,8.18
2022-09-26T00:58:29.773Z,8.57
2022-09-26T01:01:01.793Z,7.93
2022-09-26T01:03:33.053Z,7.68
2022-09-26T01:06:02.965Z,7.97
2022-09-26T01:08:37.839Z,7.45
2022-09-26T01:11:11.574Z,7.57
2022-09-26T01:13:45.572Z,7.55
2022-09-26T01:16:16.881Z,7.32
2022-09-26T01:18:48.110Z,8.07
2022-09-26T01:21:44.827Z,7.07
2022-09-26T01:24:41.066Z,6.85
2022-09-26T01:27:43.554Z,7.30
2022-09-26T01:30:18.009Z,6.82
2022-09-26T01:33:24.790Z,6.78
2022-09-26T01:36:24.262Z,7.18
2022-09-26T01:39:04.306Z,6.45
2022-09-26T01:41:45.352Z,6.63
2022-09-26T01:44:27.454Z,6.72
2022-09-26T01:47:06.442Z,7.30
2022-09-26T01:49:53.213Z,7.25
2022-09-26T01:52:32.604Z,7.10
2022-09-26T01:55:08.392Z,7.32
2022-09-26T01:57:44.960Z,7.95
2022-09-26T02:00:15.843Z,7.30
2022-09-26T02:02:49.867Z,6.93
2022-09-26T02:05:26.684Z,7.22
2022-09-26T02:08:01.020Z,8.30
2022-09-26T02:10:36.174Z,6.68
2022-09-26T02:13:10.517Z,6.80
2022-09-26T02:15:41.526Z,7.22
2022-09-26T02:18:19.034Z,7.80
2022-09-26T02:20:52.890Z,6.35
2022-09-26T02:23:23.092Z,7.43
2022-09-26T02:25:52.877Z,8.18
2022-09-26T02:28:23.115Z,6.38
2022-09-26T02:30:55.272Z,7.60
2022-09-26T02:33:26.533Z,7.18
2022-09-26T02:35:57.528Z,7.47
2022-09-26T02:38:30.525Z,7.28
2022-09-26T02:41:06.950Z,7.88
2022-09-26T02:44:04.009Z,7.93
2022-09-26T02:47:02.053Z,7.13
2022-09-26T02:50:08.429Z,6.85
2022-09-26T02:52:51.852Z,6.75
2022-09-26T02:55:25.880Z,7.60
2022-09-26T02:58:03.968Z,7.35
2022-09-26T03:00:45.301Z,6.60
2022-09-26T03:03:23.393Z,7.18
2022-09-26T03:05:58.875Z,8.68
2022-09-26T03:08:32.010Z,6.70
2022-09-26T03:11:04.931Z,7.38
2022-09-26T03:13:36.762Z,7.70
2022-09-26T03:16:08.579Z,7.88
2022-09-26T03:18:45.042Z,7.78
2022-09-26T03:21:16.688Z,7.47
2022-09-26T03:23:47.037Z,7.68
2022-09-26T03:26:24.545Z,7.45
2022-09-26T03:28:56.780Z,7.47
2022-09-26T03:31:27.284Z,8.68
2022-09-26T03:33:57.160Z,7.13
2022-09-26T03:36:29.486Z,7.40
2022-09-26T03:38:59.339Z,8.50
2022-09-26T03:41:29.061Z,7.05
2022-09-26T03:43:59.014Z,7.45
2022-09-26T03:46:29.022Z,8.25
2022-09-26T03:48:59.092Z,8.18
2022-09-26T03:51:30.266Z,7.03
2022-09-26T03:54:00.264Z,6.75
2022-09-26T03:56:30.024Z,6.88
2022-09-26T03:58:59.846Z,7.43
2022-09-26T04:01:29.909Z,7.28
2022-09-26T04:03:59.792Z,7.28
2022-09-26T04:06:30.979Z,7.78
2022-09-26T04:09:00.903Z,7.68
2022-09-26T04:11:30.964Z,7.43
2022-09-26T04:14:00.698Z,7.47
2022-09-26T04:16:31.687Z,7.60
2022-09-26T04:19:01.495Z,7.28
2022-09-26T04:21:35.629Z,6.90
2022-09-26T04:24:07.379Z,6.85
2022-09-26T04:26:37.208Z,8.02
2022-09-26T04:29:07.080Z,7.97
2022-09-26T04:31:37.816Z,7.47
2022-09-26T04:34:08.008Z,7.90
2022-09-26T04:36:39.413Z,9.02
2022-09-26T04:39:09.349Z,8.15
2022-09-26T04:41:39.396Z,7.07
2022-09-26T04:44:12.808Z,8.20
2022-09-26T04:46:42.663Z,8.60
2022-09-26T04:49:12.706Z,8.23
2022-09-26T04:51:44.264Z,8.23
2022-09-26T04:54:14.144Z,9.45
2022-09-26T04:56:44.225Z,8.88
2022-09-26T04:59:14.536Z,8.77
2022-09-26T05:01:44.733Z,9.65
2022-09-26T05:04:14.613Z,9.48
2022-09-26T05:06:45.925Z,9.90
2022-09-26T05:09:15.909Z,10.93
2022-09-26T05:11:45.751Z,11.50
2022-09-26T05:14:15.459Z,11.45
2022-09-26T05:16:45.346Z,11.27
2022-09-26T05:19:15.209Z,9.55
2022-09-26T05:21:46.884Z,10.15
2022-09-26T05:24:34.036Z,10.38
2022-09-26T05:27:07.621Z,11.00
2022-09-26T05:29:37.688Z,10.98
2022-09-26T05:32:13.096Z,11.63
2022-09-26T05:34:42.873Z,12.07
2022-09-26T05:37:14.022Z,10.23
2022-09-26T05:40:00.931Z,12.23
2022-09-26T05:42:30.824Z,11.93
2022-09-26T05:45:03.268Z,10.90
2022-09-26T05:47:36.266Z,11.07
2022-09-26T05:50:10.051Z,11.73
2022-09-26T05:55:11.996Z,10.65
2022-09-26T05:57:51.594Z,19.40
2022-09-26T06:00:21.778Z,15.25
2022-09-26T06:02:56.872Z,12.75
2022-09-26T06:05:26.924Z,11.65
2022-09-26T06:08:00.390Z,10.23
2022-09-26T06:10:31.727Z,10.38
2022-09-26T06:13:02.700Z,10.32
2022-09-26T06:15:32.997Z,9.63
2022-09-26T06:18:05.478Z,10.90
2022-09-26T06:20:35.852Z,10.02
2022-09-26T06:23:07.162Z,10.75
2022-09-26T06:25:37.260Z,9.02
2022-09-26T06:28:07.357Z,9.40
2022-09-26T06:30:37.326Z,9.10
2022-09-26T06:33:08.547Z,12.77
2022-09-26T06:35:38.428Z,9.50
2022-09-26T06:38:09.865Z,9.15
2022-09-26T06:40:39.691Z,12.32
2022-09-26T06:43:09.658Z,10.10
2022-09-26T06:45:39.449Z,9.48
2022-09-26T06:48:09.398Z,9.30
2022-09-26T06:50:39.477Z,8.23
2022-09-26T06:53:10.908Z,8.65
2022-09-26T06:55:40.692Z,9.10
2022-09-26T06:58:10.476Z,8.75
2022-09-26T07:00:40.473Z,8.35
2022-09-26T07:03:11.502Z,11.88
2022-09-26T07:05:41.628Z,11.35
2022-09-26T07:08:12.855Z,9.48
2022-09-26T07:10:42.878Z,11.25
2022-09-26T07:13:12.799Z,10.35
2022-09-26T07:15:46.880Z,9.30
2022-09-26T07:18:17.351Z,8.25
2022-09-26T07:20:47.784Z,8.50
2022-09-26T07:23:19.119Z,7.57
2022-09-26T07:25:49.013Z,6.93
2022-09-26T07:28:19.220Z,6.85
2022-09-26T07:30:49.623Z,6.80
2022-09-26T07:33:19.456Z,6.80
2022-09-26T07:35:49.783Z,6.43
2022-09-26T07:38:21.844Z,7.45
2022-09-26T07:40:53.869Z,5.95
2022-09-26T07:43:37.763Z,6.57
2022-09-26T07:46:34.335Z,6.93
2022-09-26T07:49:22.638Z,7.03
2022-09-26T07:51:55.494Z,6.85
2022-09-26T07:54:27.109Z,6.53
2022-09-26T07:56:56.898Z,7.22
2022-09-26T07:59:26.890Z,6.95
2022-09-26T08:01:58.140Z,6.85
2022-09-26T08:04:28.493Z,6.60
2022-09-26T08:06:59.542Z,6.15
2022-09-26T08:09:30.991Z,6.85
2022-09-26T08:12:01.735Z,7.07
2022-09-26T08:14:32.154Z,7.90
2022-09-26T08:17:02.075Z,5.90
2022-09-26T08:19:32.397Z,5.68
2022-09-26T08:22:02.323Z,6.10
2022-09-26T08:24:33.674Z,6.45
2022-09-26T08:27:03.463Z,5.38
2022-09-26T08:29:34.158Z,6.32
2022-09-26T08:32:04.319Z,6.22
2022-09-26T08:34:35.234Z,5.80
2022-09-26T08:37:05.012Z,7.28
2022-09-26T08:39:36.555Z,6.57
2022-09-26T08:42:23.986Z,7.43
2022-09-26T08:45:26.757Z,6.25
2022-09-26T08:48:06.591Z,5.70
2022-09-26T08:50:44.454Z,6.40
2022-09-26T08:53:18.275Z,6.05
2022-09-26T08:55:50.959Z,6.10
2022-09-26T08:58:28.886Z,6.80
2022-09-26T09:01:02.819Z,7.18
2022-09-26T09:03:37.826Z,6.07
2022-09-26T09:06:11.851Z,6.20
2022-09-26T09:11:27.917Z,6.05
2022-09-26T09:14:12.503Z,6.88
2022-09-26T09:16:53.990Z,6.80
2022-09-26T09:19:35.517Z,6.75
2022-09-26T09:22:22.417Z,6.13
2022-09-26T09:24:59.573Z,6.32
2022-09-26T09:28:03.991Z,6.00
2022-09-26T09:30:41.333Z,7.70
2022-09-26T09:33:15.541Z,7.13
2022-09-26T09:35:49.283Z,6.05
2022-09-26T09:38:23.974Z,7.32
2022-09-26T09:41:01.856Z,6.63
2022-09-26T09:43:38.497Z,6.68
2022-09-26T09:46:17.946Z,6.18
2022-09-26T09:48:49.889Z,5.15
2022-09-26T09:51:39.611Z,5.47
2022-09-26T09:54:25.960Z,5.15
2022-09-26T09:57:20.323Z,4.53
2022-09-26T10:00:06.591Z,4.88
2022-09-26T10:02:44.239Z,5.18
2022-09-26T10:05:25.029Z,4.47
2022-09-26T10:07:58.150Z,5.15
2022-09-26T10:10:37.576Z,5.65
2022-09-26T10:13:10.819Z,5.57
2022-09-26T10:15:50.711Z,5.00
2022-09-26T10:18:26.414Z,5.63
2022-09-26T10:21:02.214Z,4.75
2022-09-26T10:23:35.159Z,5.13
2022-09-26T10:26:07.688Z,5.07
2022-09-26T10:28:46.803Z,5.20
2022-09-26T10:31:25.997Z,4.90
2022-09-26T10:34:00.227Z,4.78
2022-09-26T10:36:32.204Z,4.25
2022-09-26T10:39:24.203Z,4.47
2022-09-26T10:42:01.059Z,4.32
2022-09-26T10:44:34.802Z,4.82
2022-09-26T10:47:09.446Z,4.55
2022-09-26T10:49:47.702Z,4.28
2022-09-26T10:52:23.804Z,4.90
2022-09-26T10:54:59.057Z,3.88
2022-09-26T10:57:35.941Z,4.35
2022-09-26T11:00:08.781Z,4.10
2022-09-26T11:02:47.512Z,3.80
2022-09-26T11:05:35.816Z,4.20
2022-09-26T11:08:08.868Z,4.13
2022-09-26T11:10:41.666Z,4.47
2022-09-26T11:13:17.783Z,4.77
2022-09-26T11:16:01.562Z,4.20
2022-09-26T11:18:40.866Z,3.70
2022-09-26T11:21:28.181Z,4.07
2022-09-26T11:24:05.298Z,4.05
2022-09-26T11:26:39.970Z,4.05
2022-09-26T11:29:19.315Z,3.97
2022-09-26T11:31:49.633Z,4.40
2022-09-26T11:34:27.212Z,3.88
2022-09-26T11:37:14.533Z,3.85
2022-09-26T11:42:34.140Z,3.88
2022-09-26T11:45:16.668Z,4.10
2022-09-26T11:48:15.309Z,4.38
2022-09-26T11:50:56.959Z,4.20
2022-09-26T11:53:46.952Z,4.00
2022-09-26T11:56:48.198Z,3.72
2022-09-26T11:59:39.790Z,3.47
2022-09-26T12:02:31.946Z,4.10
2022-09-26T12:05:27.308Z,4.07
2022-09-26T12:08:20.424Z,3.85
2022-09-26T12:10:57.814Z,4.40
2022-09-26T12:13:35.335Z,3.80
2022-09-26T12:16:14.605Z,3.90
2022-09-26T12:18:59.499Z,4.32
2022-09-26T12:22:02.781Z,4.50
2022-09-26T12:24:41.329Z,5.40
2022-09-26T12:27:20.588Z,4.28
2022-09-26T12:30:02.295Z,3.40
2022-09-26T12:32:58.405Z,4.13
2022-09-26T12:35:45.315Z,3.95
2022-09-26T12:38:39.592Z,4.10
2022-09-26T12:41:27.354Z,4.00
2022-09-26T12:44:13.725Z,4.20
2022-09-26T12:47:25.033Z,4.13
2022-09-26T12:50:14.019Z,4.00
2022-09-26T12:53:19.355Z,4.43
2022-09-26T12:56:06.278Z,4.00
2022-09-26T12:59:05.308Z,4.45
2022-09-26T13:01:51.629Z,4.03
2022-09-26T13:04:44.895Z,4.85
2022-09-26T13:07:27.787Z,4.00
2022-09-26T13:10:24.287Z,4.18
2022-09-26T13:13:13.009Z,4.15
2022-09-26T13:15:58.920Z,4.78
2022-09-26T13:18:38.096Z,4.68
2022-09-26T13:21:14.011Z,4.57
2022-09-26T13:23:53.942Z,4.93
2022-09-26T13:26:28.994Z,5.07
2022-09-26T13:29:19.913Z,5.93
2022-09-26T13:31:59.808Z,5.43
2022-09-26T13:34:37.625Z,6.43
2022-09-26T13:37:29.082Z,5.95
2022-09-26T13:40:09.544Z,10.32
2022-09-26T13:42:46.419Z,8.18
2022-09-26T13:45:28.050Z,9.15
2022-09-26T13:48:06.992Z,4.68
2022-09-26T13:50:45.231Z,5.15
2022-09-26T13:53:21.791Z,4.70
2022-09-26T13:56:25.162Z,4.88
2022-09-26T13:59:04.413Z,4.87
2022-09-26T14:01:34.821Z,5.25
2022-09-26T14:04:20.112Z,5.47
2022-09-26T14:07:28.534Z,4.50
2022-09-26T14:10:13.591Z,5.15
2022-09-26T14:13:08.004Z,4.45
2022-09-26T14:15:58.519Z,4.72
2022-09-26T14:18:47.936Z,5.07
2022-09-26T14:21:34.667Z,4.68
2022-09-26T14:24:28.585Z,5.22
2022-09-26T14:27:42.263Z,4.55
2022-09-26T14:30:29.150Z,4.95
2022-09-26T14:33:06.449Z,4.68
2022-09-26T14:35:38.719Z,5.10
2022-09-26T14:38:16.799Z,5.45
2022-09-26T14:40:54.857Z,5.43
2022-09-26T14:43:29.039Z,5.60
2022-09-26T14:46:04.197Z,5.18
2022-09-26T14:48:38.081Z,4.95
2022-09-26T14:54:00.557Z,4.75
2022-09-26T14:56:42.070Z,5.50
2022-09-26T14:59:40.138Z,4.28
2022-09-26T15:02:28.165Z,5.60
2022-09-26T15:05:16.332Z,6.60
2022-09-26T15:07:49.088Z,6.32
2022-09-26T15:10:26.013Z,5.40
2022-09-26T15:13:02.254Z,5.63
2022-09-26T15:15:44.273Z,5.65
2022-09-26T15:18:24.390Z,5.65
2022-09-26T15:21:03.983Z,5.07
2022-09-26T15:23:36.137Z,9.98
2022-09-26T15:26:07.508Z,6.10
2022-09-26T15:28:39.647Z,6.57
2022-09-26T15:31:21.439Z,5.53
2022-09-26T15:33:52.929Z,5.45
2022-09-26T15:36:23.196Z,6.43
2022-09-26T15:38:53.897Z,6.35
2022-09-26T15:41:42.636Z,5.88
2022-09-26T15:44:20.725Z,5.93
2022-09-26T15:46:52.002Z,5.80
2022-09-26T15:49:24.525Z,5.15
2022-09-26T15:51:56.875Z,5.38
2022-09-26T15:54:30.905Z,6.03
2022-09-26T15:57:04.193Z,5.90
2022-09-26T15:59:41.430Z,5.78
2022-09-26T16:02:23.502Z,6.25
2022-09-26T16:04:54.907Z,6.43
2022-09-26T16:07:27.603Z,6.28
2022-09-26T16:09:59.304Z,6.40
2022-09-26T16:12:31.766Z,7.35
2022-09-26T16:15:04.439Z,7.20
2022-09-26T16:17:36.751Z,7.00
2022-09-26T16:20:26.135Z,6.03
2022-09-26T16:23:01.815Z,6.88
2022-09-26T16:25:52.421Z,6.90
2022-09-26T16:28:44.695Z,6.60
2022-09-26T16:31:23.285Z,7.00
2022-09-26T16:33:55.672Z,7.00
2022-09-26T16:36:27.919Z,7.22
2022-09-26T16:39:01.131Z,6.82
2022-09-26T16:44:35.378Z,6.80
2022-09-26T16:47:09.171Z,8.30
2022-09-26T16:49:46.898Z,8.00
2022-09-26T16:52:28.094Z,6.97
2022-09-26T16:54:59.495Z,6.80
2022-09-26T16:57:32.256Z,6.80
2022-09-26T17:00:26.140Z,6.90
2022-09-26T17:02:56.106Z,8.57
2022-09-26T17:05:25.992Z,6.55
2022-09-26T17:07:55.814Z,7.82
2022-09-26T17:10:27.132Z,7.35
2022-09-26T17:13:02.563Z,7.97
2022-09-26T17:15:35.482Z,7.63
2022-09-26T17:18:10.512Z,8.18
2022-09-26T17:20:46.541Z,8.32
2022-09-26T17:23:38.861Z,7.78
2022-09-26T17:26:07.762Z,7.53
2022-09-26T17:28:39.821Z,7.78
2022-09-26T17:31:20.002Z,8.75
2022-09-26T17:33:52.809Z,8.07
2022-09-26T17:36:25.600Z,8.15
2022-09-26T17:38:59.320Z,8.57
2022-09-26T17:44:01.778Z,7.65
2022-09-26T17:46:33.379Z,9.00
2022-09-26T17:49:05.352Z,8.07
2022-09-26T17:51:36.256Z,8.80
2022-09-26T17:54:07.530Z,9.35
2022-09-26T17:56:37.922Z,8.45
2022-09-26T17:59:19.225Z,8.35
2022-09-26T18:01:58.358Z,8.77
2022-09-26T18:04:30.445Z,8.35
2022-09-26T18:07:05.385Z,8.43
2022-09-26T18:09:36.799Z,8.40
2022-09-26T18:12:07.034Z,7.80
2022-09-26T18:14:38.039Z,8.27
2022-09-26T18:17:14.916Z,8.77
2022-09-26T18:19:45.390Z,8.73
2022-09-26T18:22:18.922Z,8.48
2022-09-26T18:24:52.186Z,7.63
2022-09-26T18:27:23.130Z,7.68
2022-09-26T18:29:53.148Z,8.13
2022-09-26T18:32:29.693Z,7.72
2022-09-26T18:35:01.381Z,8.77
2022-09-26T18:37:31.389Z,8.48
2022-09-26T18:40:04.037Z,9.05
2022-09-26T18:42:35.513Z,8.48
2022-09-26T18:45:08.664Z,8.63
2022-09-26T18:47:42.799Z,7.82
2022-09-26T18:50:22.584Z,8.90
2022-09-26T18:52:53.939Z,8.25
2022-09-26T18:55:44.303Z,8.73
2022-09-26T18:58:27.960Z,7.93
2022-09-26T19:01:00.714Z,8.77
2022-09-26T19:03:34.616Z,8.23
2022-09-26T19:06:06.783Z,8.77
2022-09-26T19:08:39.159Z,8.43
2022-09-26T19:11:14.025Z,8.50
2022-09-26T19:13:46.009Z,7.82
2022-09-26T19:16:16.710Z,9.52
2022-09-26T19:18:49.935Z,9.13
2022-09-26T19:21:28.760Z,9.48
2022-09-26T19:24:01.795Z,9.73
2022-09-26T19:26:39.135Z,9.55
2022-09-26T19:29:15.077Z,8.90
2022-09-26T19:31:45.212Z,9.13
2022-09-26T19:34:17.183Z,9.00
2022-09-26T19:36:47.364Z,9.35
2022-09-26T19:39:17.591Z,9.25
2022-09-26T19:41:47.663Z,9.43
2022-09-26T19:44:17.816Z,8.77
2022-09-26T19:46:48.509Z,9.05
2022-09-26T19:49:20.723Z,8.25
2022-09-26T19:51:51.434Z,8.20
2022-09-26T19:54:24.159Z,8.32
2022-09-26T19:56:54.248Z,7.68
2022-09-26T19:59:27.481Z,7.38
2022-09-26T20:01:58.428Z,7.60
2022-09-26T20:04:30.391Z,7.63
2022-09-26T20:07:01.700Z,7.70
2022-09-26T20:09:32.048Z,7.50
2022-09-26T20:12:03.346Z,7.05
2022-09-26T20:14:33.503Z,7.60
2022-09-26T20:17:07.326Z,7.20
2022-09-26T20:19:41.424Z,7.53
2022-09-26T20:22:15.924Z,7.32
2022-09-26T20:24:48.280Z,7.43
2022-09-26T20:27:20.457Z,6.78
2022-09-26T20:30:08.924Z,7.55
2022-09-26T20:32:40.776Z,7.00
2022-09-26T20:35:15.329Z,7.53
2022-09-26T20:37:45.615Z,6.82
2022-09-26T20:40:19.474Z,6.85
2022-09-26T20:45:26.766Z,7.53
2022-09-26T20:47:57.596Z,7.50
2022-09-26T20:50:34.255Z,7.50
2022-09-26T20:53:04.317Z,7.35
2022-09-26T20:55:35.272Z,7.13
2022-09-26T20:58:06.134Z,6.53
2022-09-26T21:00:38.791Z,7.05
2022-09-26T21:03:11.297Z,7.32
2022-09-26T21:05:43.085Z,7.47
2022-09-26T21:08:26.349Z,7.43
2022-09-26T21:10:57.842Z,7.38
2022-09-26T21:13:27.919Z,7.00
2022-09-26T21:15:57.798Z,6.68
2022-09-26T21:18:30.463Z,7.57
2022-09-26T21:21:06.769Z,7.43
2022-09-26T21:23:45.332Z,6.07
2022-09-26T21:26:19.338Z,6.75
2022-09-26T21:28:50.572Z,7.10
2022-09-26T21:31:24.137Z,5.93
2022-09-26T21:33:56.426Z,7.00
2022-09-26T21:36:34.671Z,6.53
2022-09-26T21:39:06.274Z,7.00
2022-09-26T21:41:37.387Z,6.72
2022-09-26T21:44:12.006Z,6.60
2022-09-26T21:46:41.865Z,6.38
2022-09-26T21:49:11.773Z,6.68
2022-09-26T21:51:45.557Z,6.95
2022-09-26T21:56:55.575Z,6.55
2022-09-26T21:59:26.048Z,6.68
2022-09-26T22:01:56.008Z,7.07
2022-09-26T22:04:27.344Z,6.60
2022-09-26T22:06:58.683Z,6.40
2022-09-26T22:09:28.738Z,6.22
2022-09-26T22:11:59.304Z,6.95
2022-09-26T22:14:29.254Z,6.78
2022-09-26T22:16:59.240Z,6.72
2022-09-26T22:19:33.354Z,6.45
2022-09-26T22:22:04.662Z,6.18
2022-09-26T22:24:35.508Z,6.22
2022-09-26T22:27:05.968Z,6.00
2022-09-26T22:29:35.829Z,6.18
2022-09-26T22:32:06.297Z,6.35
2022-09-26T22:34:36.245Z,6.97
2022-09-26T22:37:07.538Z,6.75
2022-09-26T22:39:37.545Z,5.50
2022-09-26T22:42:07.547Z,6.03
2022-09-26T22:44:37.346Z,6.28
2022-09-26T22:47:07.529Z,6.60
2022-09-26T22:49:37.433Z,5.63
2022-09-26T22:52:08.703Z,5.95
2022-09-26T22:54:38.652Z,5.72
2022-09-26T22:57:08.567Z,5.82
2022-09-26T22:59:39.315Z,6.03
2022-09-26T23:02:09.193Z,6.10
2022-09-26T23:04:47.936Z,5.20
2022-09-26T23:07:20.470Z,5.65
2022-09-26T23:09:50.440Z,5.72
2022-09-26T23:12:20.310Z,5.80
2022-09-26T23:14:50.302Z,5.72
2022-09-26T23:17:20.270Z,5.97
2022-09-26T23:19:50.535Z,6.38
2022-09-26T23:22:21.827Z,6.40
2022-09-26T23:24:52.560Z,6.75
2022-09-26T23:27:22.658Z,6.82
2022-09-26T23:29:53.863Z,7.00
2022-09-26T23:32:24.066Z,6.32
2022-09-26T23:34:53.968Z,6.20
2022-09-26T23:37:25.411Z,7.00
2022-09-26T23:39:55.372Z,6.55
2022-09-26T23:42:25.244Z,6.50
2022-09-26T23:44:55.016Z,7.18
2022-09-26T23:47:24.934Z,6.93
2022-09-26T23:49:54.800Z,7.32
2022-09-26T23:52:26.194Z,7.82
2022-09-26T23:54:56.037Z,7.38
2022-09-26T23:57:25.927Z,6.68
2022-09-26T23:59:56.017Z,6.75
